X  Fermer Données météorologiques d'aviation de Metar     KDNN Dalton Municipal Airport
Température
9°C Température
2°C Point de rosée
62% Humidité



Vent
5 KM/H
3 MPH
1 M/S
3 KTS



200°
SSO
Conditions actuelles

Clair Clair
Pression 1019.98 (hPa) - 30.12 (inHg)
Visibilité 10 (mile) - 16.1 (km)
Aéroport
Code de l'aéroport KDNN

Emplacement: Dalton Municipal Airport
Distance: 34 (km)

Metar:
KDNN 261335Z AUTO 20003KT 10SM CLR 09/02 A3012 RMK AO2 T00880023

Temps: 02-26-2024 08:35 EST